Time;durP1;ratioP1;P1;durP2;ratioP2;P2;SDS_P1;SDS_P2;PMS_P1;PMS_P2;Temp;Humidity;BMP_temperature;BMP_pressure;BME280_temperature;BME280_humidity;BME280_pressure;Samples;Min_cycle;Max_cycle;Signal;HPM_P1;HPM_P2
2021/07/20 00:00:23;;;;;;;23.83;14.18;;;;;;;21.25;86.30;99012.17;1751146;82;21120;-76
2021/07/20 00:02:54;;;;;;;22.98;13.15;;;;;;;21.24;86.46;99013.36;1743345;81;21546;-74
2021/07/20 00:05:23;;;;;;;28.17;13.93;;;;;;;21.25;86.24;99016.97;1749632;82;21512;-73
2021/07/20 00:07:56;;;;;;;26.10;13.35;;;;;;;21.24;86.13;99023.78;1747753;81;20997;-72
2021/07/20 00:10:33;;;;;;;23.35;12.30;;;;;;;21.23;86.10;99017.97;1749676;81;21746;-77
2021/07/20 00:13:01;;;;;;;24.12;14.28;;;;;;;21.23;85.96;99013.77;1751189;81;21788;-66
2021/07/20 00:15:27;;;;;;;26.12;13.25;;;;;;;21.13;85.80;99007.00;1746194;81;21001;-76
2021/07/20 00:17:55;;;;;;;22.13;13.18;;;;;;;20.92;86.18;99008.03;1743145;81;21049;-76
2021/07/20 00:20:22;;;;;;;23.15;12.03;;;;;;;20.84;87.35;99007.05;1742939;82;21068;-68
2021/07/20 00:22:49;;;;;;;18.55;12.10;;;;;;;20.87;87.78;99014.04;1734825;82;21494;-75
2021/07/20 00:25:15;;;;;;;20.68;11.53;;;;;;;20.92;87.69;99019.23;1741205;82;22116;-69
2021/07/20 00:27:44;;;;;;;24.00;12.00;;;;;;;21.00;87.56;99009.45;1742888;82;21143;-72
2021/07/20 00:30:13;;;;;;;17.02;11.97;;;;;;;21.04;87.18;99013.02;1741948;82;21004;-73
2021/07/20 00:32:40;;;;;;;19.60;11.53;;;;;;;21.07;86.84;99009.41;1742452;82;21001;-72
2021/07/20 00:35:08;;;;;;;32.25;11.22;;;;;;;21.08;86.41;99013.83;1743106;82;21068;-73
2021/07/20 00:37:38;;;;;;;16.30;9.40;;;;;;;21.07;86.33;99017.03;1740623;82;21036;-77
2021/07/20 00:40:11;;;;;;;13.13;8.80;;;;;;;21.04;86.05;99018.03;1741638;82;22088;-74
2021/07/20 00:42:40;;;;;;;21.20;11.53;;;;;;;21.03;85.95;99024.03;1740203;82;20993;-73
2021/07/20 00:45:09;;;;;;;16.75;9.78;;;;;;;21.05;86.29;99025.84;1741746;82;21128;-76
2021/07/20 00:47:36;;;;;;;18.00;10.20;;;;;;;21.10;86.09;99029.59;1742337;82;21084;-76
2021/07/20 00:50:08;;;;;;;23.18;11.33;;;;;;;21.07;85.61;99021.23;1743341;82;21137;-67
2021/07/20 00:52:39;;;;;;;21.73;10.33;;;;;;;21.01;85.69;99019.44;1716338;82;21039;-75
2021/07/20 00:55:08;;;;;;;17.12;9.35;;;;;;;20.98;85.89;99021.65;1707905;82;21009;-74
2021/07/20 00:57:35;;;;;;;21.60;10.50;;;;;;;20.96;85.86;99024.05;1743607;82;21008;-67
2021/07/20 01:00:07;;;;;;;29.27;11.35;;;;;;;20.95;85.88;99016.86;1743770;82;21065;-69
2021/07/20 01:02:34;;;;;;;22.45;11.75;;;;;;;20.95;85.94;99014.06;1736206;82;21111;-76
2021/07/20 01:05:01;;;;;;;25.55;12.60;;;;;;;20.92;86.15;99013.63;1738548;82;21010;-66
2021/07/20 01:07:28;;;;;;;17.87;11.90;;;;;;;20.92;86.23;99013.63;1710043;82;21506;-65
2021/07/20 01:09:56;;;;;;;23.12;12.70;;;;;;;20.92;86.44;99010.02;1743441;82;21025;-71
2021/07/20 01:12:25;;;;;;;20.50;12.40;;;;;;;20.83;86.28;99009.66;1737328;82;21119;-73
2021/07/20 01:14:52;;;;;;;21.50;12.60;;;;;;;20.72;87.04;99006.27;1743246;82;21041;-76
2021/07/20 01:17:19;;;;;;;24.50;11.78;;;;;;;20.68;87.46;99003.48;1713763;82;21056;-66
2021/07/20 01:19:54;;;;;;;20.57;12.23;;;;;;;20.69;87.57;99004.28;1742753;82;21561;-71
2021/07/20 01:22:30;;;;;;;21.70;11.22;;;;;;;20.72;87.57;99006.87;1743243;82;21566;-64
2021/07/20 01:25:09;;;;;;;22.87;10.48;;;;;;;20.74;87.51;99008.67;1735315;82;21533;-65
2021/07/20 01:27:38;;;;;;;18.10;11.83;;;;;;;20.79;87.43;99007.67;1732129;82;22939;-73
2021/07/20 01:30:06;;;;;;;21.85;13.13;;;;;;;20.84;87.16;99009.25;1741474;82;21005;-74
2021/07/20 01:32:34;;;;;;;18.70;11.78;;;;;;;20.80;86.70;99009.84;1733310;82;21060;-65
2021/07/20 01:35:01;;;;;;;16.02;10.13;;;;;;;20.72;86.99;99005.47;1741149;82;21049;-73
2021/07/20 01:37:28;;;;;;;19.73;11.70;;;;;;;20.70;87.37;99005.88;1742505;82;21506;-65
2021/07/20 01:39:56;;;;;;;18.92;10.63;;;;;;;20.73;87.44;99008.45;1743880;82;21117;-76
2021/07/20 01:42:25;;;;;;;19.17;12.30;;;;;;;20.74;87.21;99019.27;1740630;82;21537;-75
2021/07/20 01:44:51;;;;;;;21.75;11.22;;;;;;;20.76;87.00;99023.06;1733341;82;21049;-76
2021/07/20 01:47:19;;;;;;;20.08;12.95;;;;;;;20.76;86.76;99024.47;1741290;82;21017;-74
2021/07/20 01:49:47;;;;;;;21.60;11.73;;;;;;;20.73;86.84;99028.05;1742222;82;21065;-69
2021/07/20 01:52:17;;;;;;;20.95;12.00;;;;;;;20.72;86.77;99028.66;1735246;82;21624;-75
2021/07/20 01:54:46;;;;;;;29.05;13.85;;;;;;;20.70;86.78;99023.25;1742475;82;21446;-76
2021/07/20 01:57:17;;;;;;;18.77;12.28;;;;;;;20.59;86.88;99024.69;1737571;82;21010;-72
2021/07/20 01:59:59;;;;;;;23.10;11.80;;;;;;;20.53;87.44;99016.69;1707913;82;21046;-77
2021/07/20 02:03:13;;;;;;;17.25;11.00;;;;;;;20.54;87.74;99014.67;1740619;82;21044;-74
2021/07/20 02:08:31;;;;;;;20.72;12.98;;;;;;;20.60;87.63;99010.87;1736592;82;21081;-75
2021/07/20 02:11:18;;;;;;;18.48;11.30;;;;;;;20.59;87.68;99007.27;1736401;82;20982;-64
2021/07/20 02:13:56;;;;;;;22.25;11.85;;;;;;;20.55;87.81;99008.70;1702941;84;21565;-74
2021/07/20 02:16:39;;;;;;;16.55;10.68;;;;;;;20.58;87.93;99008.48;1735487;82;21992;-69
2021/07/20 02:19:28;;;;;;;19.98;11.28;;;;;;;20.61;87.81;99011.09;1748070;81;22245;-76
2021/07/20 02:22:00;;;;;;;20.05;11.38;;;;;;;20.64;87.63;99012.47;1744371;82;21542;-71
2021/07/20 02:24:30;;;;;;;26.68;11.65;;;;;;;20.64;87.46;99008.89;1749583;82;21045;-76
2021/07/20 02:26:59;;;;;;;20.50;11.33;;;;;;;20.60;87.33;99015.08;1748017;81;21002;-76
2021/07/20 02:29:26;;;;;;;20.32;10.93;;;;;;;20.57;87.34;99008.30;1749640;82;21077;-75
2021/07/20 02:31:57;;;;;;;18.10;10.05;;;;;;;20.57;87.42;99014.48;1741037;82;21139;-76
2021/07/20 02:34:27;;;;;;;20.08;9.98;;;;;;;20.55;87.41;99023.28;1749902;82;21576;-69
2021/07/20 02:36:56;;;;;;;20.40;11.18;;;;;;;20.57;87.37;99018.09;1717117;82;21049;-77
2021/07/20 02:39:23;;;;;;;21.23;9.45;;;;;;;20.61;87.19;99017.47;1749982;81;21048;-75
2021/07/20 02:41:51;;;;;;;15.68;10.08;;;;;;;20.63;86.97;99010.07;1751682;82;21072;-74
2021/07/20 02:44:17;;;;;;;14.93;10.43;;;;;;;20.57;86.69;99009.70;1750507;82;21214;-75
2021/07/20 02:46:44;;;;;;;19.85;11.25;;;;;;;20.55;86.89;99014.89;1748845;82;21079;-75
2021/07/20 02:49:12;;;;;;;16.67;11.18;;;;;;;20.48;86.69;99020.48;1748501;81;21024;-77
2021/07/20 02:51:39;;;;;;;14.38;8.00;;;;;;;20.30;87.34;99025.49;1748348;81;21011;-69
2021/07/20 02:54:06;;;;;;;11.50;7.75;;;;;;;20.27;87.98;99022.07;1713398;82;21042;-66
2021/07/20 02:56:33;;;;;;;14.50;7.67;;;;;;;20.31;88.18;99022.88;1751280;82;22067;-72
2021/07/20 02:59:03;;;;;;;19.07;9.13;;;;;;;20.38;88.22;99025.69;1751645;81;21463;-73
2021/07/20 03:01:35;;;;;;;15.85;8.85;;;;;;;20.45;88.17;99029.09;1748613;81;21058;-65
2021/07/20 03:04:03;;;;;;;15.45;8.88;;;;;;;20.53;88.07;99035.47;1750794;81;21017;-67
2021/07/20 03:06:32;;;;;;;16.48;9.85;;;;;;;20.61;87.84;99046.08;1749940;81;21081;-65
2021/07/20 03:09:01;;;;;;;19.95;9.98;;;;;;;20.66;87.70;99039.45;1750469;81;21158;-68
2021/07/20 03:11:43;;;;;;;20.15;11.25;;;;;;;20.72;87.18;99037.66;1741993;81;21038;-69
2021/07/20 03:14:13;;;;;;;21.42;10.40;;;;;;;20.69;87.14;99033.67;1751637;81;22155;-73
2021/07/20 03:16:42;;;;;;;26.40;11.73;;;;;;;20.68;87.21;99034.27;1748517;81;21603;-76
2021/07/20 03:19:11;;;;;;;19.27;11.70;;;;;;;20.72;87.22;99030.66;1753771;81;21597;-72
2021/07/20 03:21:39;;;;;;;24.65;13.83;;;;;;;20.72;87.34;99029.25;1748385;81;21191;-67
2021/07/20 03:24:06;;;;;;;21.75;13.00;;;;;;;20.68;87.43;99023.66;1756717;81;21560;-76
2021/07/20 03:26:35;;;;;;;16.82;11.22;;;;;;;20.65;88.06;99021.08;1756681;81;21009;-70
2021/07/20 03:29:04;;;;;;;22.13;12.30;;;;;;;20.68;88.50;99020.27;1754746;81;21045;-77
2021/07/20 03:31:33;;;;;;;20.90;13.30;;;;;;;20.78;88.63;99030.44;1719580;81;21792;-73
2021/07/20 03:34:02;;;;;;;21.87;13.68;;;;;;;20.86;88.67;99036.84;1754756;81;21146;-76
2021/07/20 03:36:31;;;;;;;22.50;13.90;;;;;;;20.94;88.56;99042.66;1754280;81;21157;-77
2021/07/20 03:38:59;;;;;;;19.02;14.33;;;;;;;21.02;88.57;99036.42;1751558;81;21091;-73
2021/07/20 03:41:27;;;;;;;18.73;13.08;;;;;;;21.09;88.62;99030.81;1753948;81;21067;-76
2021/07/20 03:43:54;;;;;;;17.65;14.05;;;;;;;21.19;88.37;99032.60;1752496;81;21051;-73
2021/07/20 03:46:23;;;;;;;18.27;13.10;;;;;;;21.28;88.30;99035.76;1754730;81;21895;-70
2021/07/20 03:48:51;;;;;;;20.05;13.32;;;;;;;21.35;88.27;99026.53;1727567;81;20997;-68
2021/07/20 03:51:24;;;;;;;15.38;12.23;;;;;;;21.46;88.04;99022.30;1750544;81;21045;-70
2021/07/20 03:53:50;;;;;;;18.90;12.70;;;;;;;21.54;87.90;99032.27;1754925;81;21038;-70
2021/07/20 03:56:17;;;;;;;20.88;12.10;;;;;;;21.62;87.73;99035.22;1747231;81;21033;-73
2021/07/20 03:58:47;;;;;;;21.00;13.22;;;;;;;21.70;87.53;99033.79;1697596;81;21569;-73
2021/07/20 04:01:14;;;;;;;17.15;12.07;;;;;;;21.76;87.33;99039.96;1752890;81;21536;-76
2021/07/20 04:03:41;;;;;;;21.55;12.73;;;;;;;21.83;87.10;99047.56;1754740;81;21013;-72
2021/07/20 04:06:10;;;;;;;16.32;12.70;;;;;;;21.88;87.07;99048.53;1715758;81;21039;-74
2021/07/20 04:08:51;;;;;;;19.30;14.00;;;;;;;21.96;86.98;99051.28;1694479;81;21010;-73
2021/07/20 04:11:20;;;;;;;17.12;13.55;;;;;;;22.05;86.66;99044.62;1752674;81;21318;-71
2021/07/20 04:13:49;;;;;;;20.27;14.98;;;;;;;22.13;86.22;99047.57;1751727;81;21475;-77
2021/07/20 04:16:27;;;;;;;19.27;15.50;;;;;;;22.23;86.02;99043.69;1748020;81;21124;-70
2021/07/20 04:18:53;;;;;;;18.35;13.32;;;;;;;22.29;85.84;99050.47;1754747;81;21102;-77
2021/07/20 04:21:23;;;;;;;22.13;13.83;;;;;;;22.34;85.67;99056.24;1754908;81;21036;-67
2021/07/20 04:23:50;;;;;;;22.35;15.93;;;;;;;22.37;85.12;99063.83;1752923;81;21098;-73
2021/07/20 04:26:20;;;;;;;29.55;16.55;;;;;;;22.44;85.02;99065.78;1746967;81;21457;-73
2021/07/20 04:28:47;;;;;;;23.25;16.12;;;;;;;22.51;84.60;99075.55;1753652;81;21030;-71
2021/07/20 04:31:18;;;;;;;22.50;14.78;;;;;;;22.58;84.00;99070.48;1754440;81;21039;-66
2021/07/20 04:33:48;;;;;;;23.15;14.70;;;;;;;22.65;83.59;99069.06;1752877;81;21085;-73
2021/07/20 04:36:32;;;;;;;19.17;14.83;;;;;;;22.69;83.52;99064.83;1748859;81;21465;-75
2021/07/20 04:39:01;;;;;;;19.15;15.63;;;;;;;22.76;83.32;99066.14;1751129;81;21017;-72
2021/07/20 04:41:27;;;;;;;22.20;14.53;;;;;;;22.81;83.03;99061.48;1756847;81;21087;-72
2021/07/20 04:43:54;;;;;;;24.75;15.68;;;;;;;22.76;82.26;99054.14;1757236;81;21598;-74
2021/07/20 04:46:23;;;;;;;16.35;14.23;;;;;;;22.66;82.38;99053.00;1750452;81;21116;-64
2021/07/20 04:48:50;;;;;;;21.00;15.40;;;;;;;22.58;82.34;99048.84;1757259;81;21505;-77
2021/07/20 04:51:18;;;;;;;19.92;13.65;;;;;;;22.57;82.91;99050.03;1753183;81;21027;-71
2021/07/20 04:53:45;;;;;;;21.00;15.68;;;;;;;22.61;82.99;99048.04;1754875;81;20981;-74
2021/07/20 04:56:12;;;;;;;32.33;16.37;;;;;;;22.60;82.74;99047.80;1754281;81;21047;-74
2021/07/20 04:58:40;;;;;;;23.62;15.55;;;;;;;22.60;82.56;99043.59;1743873;81;21603;-73
2021/07/20 05:01:08;;;;;;;29.85;15.43;;;;;;;22.65;82.94;99044.40;1754276;81;21081;-74
2021/07/20 05:03:35;;;;;;;31.77;14.75;;;;;;;22.71;83.01;99046.34;1728754;81;21580;-71
2021/07/20 05:06:03;;;;;;;18.67;14.23;;;;;;;22.74;82.22;99045.50;1756238;81;21072;-73
2021/07/20 05:08:35;;;;;;;20.65;14.00;;;;;;;22.72;82.30;99047.14;1753571;81;21039;-70
2021/07/20 05:11:02;;;;;;;24.80;16.37;;;;;;;22.81;82.35;99055.09;1749494;81;21082;-72
2021/07/20 05:13:33;;;;;;;22.17;14.23;;;;;;;22.80;82.07;99057.09;1724546;81;21122;-74
2021/07/20 05:16:01;;;;;;;22.10;13.32;;;;;;;22.86;82.53;99068.06;1756475;81;21025;-73
2021/07/20 05:18:34;;;;;;;29.90;16.73;;;;;;;23.00;82.77;99066.95;1752010;81;21044;-68
2021/07/20 05:21:03;;;;;;;23.20;14.15;;;;;;;23.12;82.52;99061.38;1733874;82;21068;-66
2021/07/20 05:23:30;;;;;;;22.58;16.20;;;;;;;23.20;82.27;99067.91;1742378;82;21041;-73
2021/07/20 05:25:59;;;;;;;22.58;16.32;;;;;;;23.27;82.07;99062.05;1743312;82;21121;-65
2021/07/20 05:28:29;;;;;;;22.15;16.20;;;;;;;23.27;82.17;99061.42;1741895;82;22111;-76
2021/07/20 05:30:57;;;;;;;22.58;14.55;;;;;;;23.32;82.62;99062.99;1714249;82;21120;-69
2021/07/20 05:33:24;;;;;;;20.85;15.03;;;;;;;23.40;82.97;99066.50;1739988;82;21526;-73
2021/07/20 05:35:54;;;;;;;23.52;13.65;;;;;;;23.50;81.91;99067.02;1739183;82;20976;-69
2021/07/20 05:38:22;;;;;;;26.30;15.25;;;;;;;23.56;82.07;99066.73;1733692;82;21020;-67
2021/07/20 05:40:52;;;;;;;18.95;13.48;;;;;;;23.58;81.54;99072.73;1731515;82;21046;-75
2021/07/20 05:43:19;;;;;;;24.52;15.15;;;;;;;23.61;80.70;99068.27;1734458;82;21088;-75
2021/07/20 05:45:47;;;;;;;24.37;14.68;;;;;;;23.61;80.74;99065.45;1738005;82;21034;-66
2021/07/20 05:48:22;;;;;;;19.62;14.18;;;;;;;23.64;79.88;99070.86;1683930;82;21057;-71
2021/07/20 05:50:54;;;;;;;24.15;14.40;;;;;;;23.68;79.93;99065.98;1742544;82;21151;-70
2021/07/20 05:53:36;;;;;;;18.45;12.95;;;;;;;23.81;80.24;99068.44;1737023;82;21030;-65
2021/07/20 05:56:31;;;;;;;21.42;12.80;;;;;;;23.93;80.25;99062.05;1712434;82;21481;-70
2021/07/20 05:59:03;;;;;;;19.00;14.25;;;;;;;24.04;80.10;99054.24;1735564;82;21037;-67
2021/07/20 06:01:32;;;;;;;17.95;14.18;;;;;;;24.08;78.94;99065.45;1743576;82;21014;-70
2021/07/20 06:04:01;;;;;;;16.42;12.55;;;;;;;24.12;79.26;99065.41;1738336;82;22180;-70
2021/07/20 06:06:32;;;;;;;24.25;13.40;;;;;;;24.19;79.39;99061.89;1732410;81;21008;-66
2021/07/20 06:09:07;;;;;;;18.75;12.55;;;;;;;24.31;79.33;99061.09;1734445;82;21083;-70
2021/07/20 06:11:31;;;;;;;18.05;12.03;;;;;;;24.43;79.20;99051.27;1733329;82;21006;-72
2021/07/20 06:13:58;;;;;;;17.10;11.43;;;;;;;24.59;78.69;99048.40;1738628;81;21107;-66
2021/07/20 06:16:24;;;;;;;15.35;11.63;;;;;;;24.72;78.06;99046.56;1731971;81;21128;-75
2021/07/20 06:18:54;;;;;;;14.40;12.05;;;;;;;24.75;75.89;99047.13;1739034;82;21049;-70
2021/07/20 06:21:23;;;;;;;16.23;11.63;;;;;;;24.71;75.49;99049.80;1721625;81;21024;-74
2021/07/20 06:23:50;;;;;;;14.70;11.45;;;;;;;24.64;75.86;99040.87;1751479;81;21534;-66
2021/07/20 06:26:22;;;;;;;18.65;12.20;;;;;;;24.68;76.26;99037.39;1750035;81;21056;-74
2021/07/20 06:28:51;;;;;;;16.73;10.82;;;;;;;24.73;75.55;99031.88;1752972;81;21798;-73
2021/07/20 06:31:18;;;;;;;20.05;11.80;;;;;;;24.70;75.70;99026.50;1751782;81;21395;-69
2021/07/20 06:33:45;;;;;;;15.28;11.88;;;;;;;24.71;74.84;99035.13;1755841;81;21526;-70
2021/07/20 06:36:17;;;;;;;17.45;11.95;;;;;;;24.69;74.47;99031.94;1748080;81;21005;-74
2021/07/20 06:38:43;;;;;;;20.97;12.30;;;;;;;24.74;74.75;99030.64;1746751;81;21015;-75
2021/07/20 06:41:10;;;;;;;19.95;11.95;;;;;;;24.82;73.19;99043.99;1742457;81;21132;-75
2021/07/20 06:43:37;;;;;;;15.08;11.93;;;;;;;24.84;73.16;99045.14;1756124;81;21466;-76
2021/07/20 06:46:06;;;;;;;19.23;12.53;;;;;;;24.93;73.19;99046.02;1750648;81;21035;-73
2021/07/20 06:48:38;;;;;;;17.17;12.15;;;;;;;24.96;72.20;99043.75;1757005;81;21010;-72
2021/07/20 06:51:06;;;;;;;22.07;10.93;;;;;;;24.93;72.03;99047.44;1756321;81;21111;-64
2021/07/20 06:53:34;;;;;;;17.42;11.20;;;;;;;24.84;71.85;99053.59;1756990;81;21118;-66
2021/07/20 06:56:04;;;;;;;21.90;11.10;;;;;;;24.78;72.21;99063.16;1756556;81;21050;-69
2021/07/20 06:58:31;;;;;;;19.70;11.33;;;;;;;24.87;72.92;99056.95;1756765;81;21028;-64
2021/07/20 07:01:00;;;;;;;17.82;10.95;;;;;;;25.07;73.11;99063.28;1696461;81;21035;-67
2021/07/20 07:03:40;;;;;;;24.52;12.47;;;;;;;25.24;72.64;99067.59;1752760;81;20979;-66
2021/07/20 07:06:07;;;;;;;19.82;12.70;;;;;;;25.28;71.31;99064.09;1756333;81;21576;-71
2021/07/20 07:08:33;;;;;;;18.73;12.05;;;;;;;25.22;70.80;99063.80;1752880;81;21080;-68
2021/07/20 07:11:00;;;;;;;20.75;12.23;;;;;;;25.12;71.23;99061.38;1752399;81;21630;-66
2021/07/20 07:13:27;;;;;;;19.85;11.60;;;;;;;25.09;71.42;99067.07;1677338;81;21004;-66
2021/07/20 07:15:56;;;;;;;15.30;10.53;;;;;;;25.06;72.26;99063.08;1756318;81;21158;-69
2021/07/20 07:18:23;;;;;;;20.92;9.88;;;;;;;25.18;72.13;99065.88;1757071;81;21494;-66
2021/07/20 07:20:50;;;;;;;13.62;10.58;;;;;;;25.38;72.27;99065.11;1748219;81;21000;-65
2021/07/20 07:23:19;;;;;;;13.13;10.10;;;;;;;25.56;69.47;99066.14;1728176;81;21079;-72
2021/07/20 07:25:50;;;;;;;13.95;9.73;;;;;;;25.59;67.63;99056.81;1747642;81;21587;-65
2021/07/20 07:28:18;;;;;;;17.77;10.93;;;;;;;25.57;67.76;99057.88;1748792;81;21059;-66
2021/07/20 07:30:44;;;;;;;22.10;11.70;;;;;;;25.62;67.67;99060.80;1753518;81;21545;-70
2021/07/20 07:33:11;;;;;;;15.30;9.20;;;;;;;25.76;68.10;99057.69;1754005;81;20998;-66
2021/07/20 07:35:39;;;;;;;15.50;10.50;;;;;;;25.92;67.80;99046.27;1753894;81;21008;-74
2021/07/20 07:38:06;;;;;;;12.10;10.80;;;;;;;26.11;66.21;99045.23;1749392;81;21033;-60
2021/07/20 07:40:34;;;;;;;13.62;9.88;;;;;;;26.19;66.95;99041.62;1754860;81;21519;-66
2021/07/20 07:43:02;;;;;;;13.15;10.50;;;;;;;26.24;65.86;99035.45;1749191;81;21493;-70
2021/07/20 07:45:29;;;;;;;17.07;10.40;;;;;;;26.19;65.62;99042.42;1752915;81;21060;-64
2021/07/20 07:47:56;;;;;;;16.27;10.05;;;;;;;26.21;66.40;99037.14;1752654;81;21044;-73
2021/07/20 07:50:24;;;;;;;15.13;9.93;;;;;;;26.32;64.22;99044.55;1751124;81;21011;-65
2021/07/20 07:52:52;;;;;;;19.65;10.23;;;;;;;26.32;65.21;99043.95;1754561;81;21048;-67
2021/07/20 07:55:22;;;;;;;15.72;10.40;;;;;;;26.41;65.38;99041.92;1755337;81;21554;-65
2021/07/20 07:57:50;;;;;;;15.13;11.08;;;;;;;26.51;65.12;99039.29;1754524;81;20985;-69
2021/07/20 08:00:18;;;;;;;12.70;10.90;;;;;;;26.49;62.75;99041.14;1752908;81;21548;-65
2021/07/20 08:02:51;;;;;;;19.65;11.38;;;;;;;26.34;64.43;99038.66;1754136;81;21009;-68
2021/07/20 08:05:21;;;;;;;19.70;11.38;;;;;;;26.42;65.12;99039.30;1751388;81;21083;-64
2021/07/20 08:07:52;;;;;;;17.73;10.53;;;;;;;26.57;64.54;99034.69;1749632;81;21076;-74
2021/07/20 08:10:18;;;;;;;17.25;10.13;;;;;;;26.69;65.86;99034.58;1754674;81;21083;-66
2021/07/20 08:12:47;;;;;;;22.13;9.85;;;;;;;26.86;64.47;99038.17;1755329;81;21012;-67
2021/07/20 08:15:18;;;;;;;20.30;9.73;;;;;;;26.94;65.41;99043.80;1754390;81;37654;-68
2021/07/20 08:17:45;;;;;;;15.20;9.83;;;;;;;27.02;64.36;99051.52;1722191;81;21058;-64
2021/07/20 08:20:13;;;;;;;14.47;9.48;;;;;;;27.07;63.47;99054.41;1749815;80;21472;-68
2021/07/20 08:22:41;;;;;;;20.37;10.32;;;;;;;27.08;63.32;99052.55;1711690;83;21032;-69
2021/07/20 08:25:12;;;;;;;12.75;10.80;;;;;;;27.04;64.08;99046.83;1676778;83;21614;-70
2021/07/20 08:27:48;;;;;;;18.25;10.65;;;;;;;26.97;63.23;99044.33;1713297;83;21614;-65
2021/07/20 08:30:15;;;;;;;18.23;9.88;;;;;;;26.72;64.05;99043.58;1685479;84;21055;-71
2021/07/20 08:32:55;;;;;;;17.73;11.15;;;;;;;26.57;64.47;99048.20;1689703;83;21098;-67
2021/07/20 08:35:26;;;;;;;14.98;10.68;;;;;;;26.61;65.24;99050.94;1719268;83;21058;-68
2021/07/20 08:37:53;;;;;;;13.98;10.00;;;;;;;26.59;64.55;99044.93;1704090;83;21007;-67
2021/07/20 08:40:51;;;;;;;11.03;8.75;;;;;;;26.58;65.30;99049.77;1718867;83;21479;-68
2021/07/20 08:44:01;;;;;;;16.35;9.75;;;;;;;26.67;64.65;99044.11;1720352;83;21022;-69
2021/07/20 08:47:04;;;;;;;12.80;9.93;;;;;;;26.83;64.24;99042.70;1700275;83;21117;-73
2021/07/20 08:50:18;;;;;;;22.55;10.38;;;;;;;27.06;64.13;99045.74;1720034;83;21067;-66
2021/07/20 08:53:04;;;;;;;18.80;9.30;;;;;;;27.33;63.40;99038.96;1711158;83;21147;-69
2021/07/20 08:55:37;;;;;;;12.58;9.48;;;;;;;27.64;61.49;99034.81;1719362;83;20997;-70
2021/07/20 08:58:06;;;;;;;12.82;9.45;;;;;;;27.80;60.96;99035.39;1713880;83;21091;-70
2021/07/20 09:00:40;;;;;;;16.30;10.00;;;;;;;27.99;60.58;99032.18;1714162;83;21501;-70
2021/07/20 09:03:43;;;;;;;13.32;8.83;;;;;;;28.15;59.69;99033.31;1696570;83;21097;-70
2021/07/20 09:06:17;;;;;;;17.77;8.23;;;;;;;28.06;57.92;99024.08;1675193;85;21489;-68
2021/07/20 09:09:08;;;;;;;13.05;9.15;;;;;;;28.03;57.01;99027.83;1700302;84;21093;-69
2021/07/20 09:11:54;;;;;;;18.25;9.48;;;;;;;28.03;57.32;99026.41;1717592;83;21012;-67
2021/07/20 09:14:44;;;;;;;16.48;9.98;;;;;;;28.15;58.10;99021.34;1687235;84;21542;-67
2021/07/20 09:17:31;;;;;;;16.35;9.33;;;;;;;28.15;57.85;99015.69;1692646;84;21082;-69
2021/07/20 09:20:14;;;;;;;15.30;8.58;;;;;;;28.15;58.25;99028.42;1695280;84;21070;-66
2021/07/20 09:23:17;;;;;;;15.18;9.23;;;;;;;28.18;57.60;99021.08;1694036;84;21071;-72
2021/07/20 09:26:10;;;;;;;10.20;8.80;;;;;;;28.19;58.23;99014.95;1696439;84;21043;-72
2021/07/20 09:28:43;;;;;;;11.95;8.58;;;;;;;28.20;57.39;99007.23;1687931;84;21862;-67
2021/07/20 09:32:02;;;;;;;12.53;8.58;;;;;;;28.11;55.87;99009.36;1693363;84;21020;-65
2021/07/20 09:34:52;;;;;;;10.93;8.05;;;;;;;27.89;55.15;99017.13;1687233;84;21043;-68
2021/07/20 09:37:54;;;;;;;10.72;8.75;;;;;;;27.91;56.85;99003.94;1688550;84;21099;-68
2021/07/20 09:40:47;;;;;;;14.55;8.90;;;;;;;28.15;56.58;98995.86;1690214;84;21063;-67
2021/07/20 09:43:36;;;;;;;15.70;8.15;;;;;;;28.46;55.47;98993.68;1692477;84;21140;-62
2021/07/20 09:46:04;;;;;;;20.08;9.05;;;;;;;28.71;54.69;98996.29;1684681;84;21027;-71
2021/07/20 09:48:53;;;;;;;16.05;9.93;;;;;;;28.61;53.56;98996.84;1696469;84;21089;-69
2021/07/20 09:51:57;;;;;;;11.33;7.97;;;;;;;28.30;53.67;98993.34;1693467;83;21063;-69
2021/07/20 09:54:38;;;;;;;14.87;8.78;;;;;;;28.00;55.10;98991.30;1698049;84;21082;-75
2021/07/20 09:57:41;;;;;;;11.78;8.90;;;;;;;27.97;55.58;98998.48;1693247;84;21138;-76
2021/07/20 10:00:11;;;;;;;19.63;8.53;;;;;;;27.95;55.38;98984.17;1697591;84;21095;-68
2021/07/20 10:02:56;;;;;;;13.88;8.73;;;;;;;27.89;54.42;98988.83;1694323;84;21013;-75
2021/07/20 10:05:30;;;;;;;13.22;8.70;;;;;;;27.69;55.76;98989.83;1696188;83;21060;-77
2021/07/20 10:08:05;;;;;;;15.53;8.88;;;;;;;27.70;56.89;98987.80;1674831;84;21508;-73
2021/07/20 10:10:57;;;;;;;13.25;8.80;;;;;;;27.62;55.92;98987.19;1695542;84;21762;-72
2021/07/20 10:13:36;;;;;;;14.65;8.98;;;;;;;27.43;56.56;98974.85;1696825;84;21044;-68
2021/07/20 10:16:25;;;;;;;14.07;8.98;;;;;;;27.43;57.47;98974.85;1693265;83;21107;-71
2021/07/20 10:19:07;;;;;;;15.05;9.65;;;;;;;27.56;57.88;98973.44;1665743;84;21099;-67
2021/07/20 10:21:39;;;;;;;16.02;10.03;;;;;;;27.67;56.50;98976.72;1675517;84;21043;-68
2021/07/20 10:24:14;;;;;;;15.90;9.25;;;;;;;27.70;57.37;98975.88;1653056;86;21141;-70
2021/07/20 10:27:06;;;;;;;14.15;9.28;;;;;;;27.84;58.37;98962.52;1719300;82;21047;-68
2021/07/20 10:30:06;;;;;;;12.78;8.18;;;;;;;28.03;57.70;98958.48;1732958;82;21084;-68
2021/07/20 10:33:26;;;;;;;13.22;9.35;;;;;;;28.03;56.08;98957.84;1695173;84;21038;-67
2021/07/20 10:36:16;;;;;;;13.00;8.78;;;;;;;28.05;56.56;98957.37;1657136;86;21044;-67
2021/07/20 10:38:48;;;;;;;10.82;8.05;;;;;;;28.04;55.61;98954.39;1668417;84;21936;-76
2021/07/20 10:41:21;;;;;;;17.30;9.73;;;;;;;28.02;56.22;98956.27;1677301;84;21026;-72
2021/07/20 10:44:05;;;;;;;14.23;8.88;;;;;;;28.11;57.43;98959.83;1672876;85;21053;-72
2021/07/20 10:46:33;;;;;;;11.90;8.70;;;;;;;28.23;57.86;98953.17;1708566;82;21518;-69
2021/07/20 10:49:10;;;;;;;12.98;9.08;;;;;;;28.33;55.49;98957.68;1740293;82;21108;-72
2021/07/20 10:51:41;;;;;;;14.68;8.18;;;;;;;28.43;55.16;98954.34;1698744;83;21059;-72
2021/07/20 10:54:26;;;;;;;17.25;8.88;;;;;;;28.43;54.98;98952.30;1714516;83;21056;-69
2021/07/20 10:56:59;;;;;;;13.85;8.60;;;;;;;28.54;55.21;98949.08;1738735;82;21557;-68
2021/07/20 10:59:57;;;;;;;14.10;8.10;;;;;;;28.65;55.00;98952.16;1741403;82;21055;-70
2021/07/20 11:03:16;;;;;;;11.68;8.45;;;;;;;28.72;54.79;98954.74;1743708;82;21033;-68
2021/07/20 11:05:47;;;;;;;13.95;8.50;;;;;;;28.79;54.90;98945.99;1732494;82;21574;-69
2021/07/20 11:08:13;;;;;;;14.15;7.83;;;;;;;28.86;54.15;98955.48;1742436;82;21029;-72
2021/07/20 11:10:53;;;;;;;15.75;9.83;;;;;;;28.91;54.24;98954.27;1740737;82;21024;-65
2021/07/20 11:16:18;;;;;;;16.60;8.15;;;;;;;29.20;54.78;98948.80;1748359;81;21042;-66
2021/07/20 11:18:47;;;;;;;17.25;8.58;;;;;;;29.36;54.28;98943.55;1697208;84;21134;-66
2021/07/20 11:21:16;;;;;;;13.15;8.43;;;;;;;29.49;53.47;98947.69;1773853;80;21043;-65
2021/07/20 11:23:44;;;;;;;12.35;8.18;;;;;;;29.56;52.81;98945.20;1767328;80;20994;-65
2021/07/20 11:26:11;;;;;;;13.18;8.28;;;;;;;29.58;52.68;98937.79;1726603;81;21077;-67
2021/07/20 11:28:45;;;;;;;17.75;8.48;;;;;;;29.53;53.64;98946.28;1697549;84;21043;-66
2021/07/20 11:31:17;;;;;;;11.10;7.25;;;;;;;29.42;53.04;98933.16;1759500;81;21511;-66
2021/07/20 11:33:49;;;;;;;12.23;7.95;;;;;;;29.33;52.15;98934.52;1759938;81;20976;-68
2021/07/20 11:36:22;;;;;;;11.38;7.85;;;;;;;29.21;51.98;98931.94;1745019;82;21043;-70
2021/07/20 11:38:55;;;;;;;10.10;8.53;;;;;;;29.09;53.04;98933.63;1754973;81;20959;-73
2021/07/20 11:42:00;;;;;;;16.47;8.03;;;;;;;28.92;53.48;98924.66;1753701;81;21021;-64
2021/07/20 11:44:52;;;;;;;14.05;7.72;;;;;;;28.73;54.46;98924.38;1759859;81;21194;-68
2021/07/20 11:47:40;;;;;;;15.30;8.70;;;;;;;28.55;55.29;98921.55;1731603;81;21538;-65
2021/07/20 11:50:23;;;;;;;19.70;8.30;;;;;;;28.43;54.76;98914.69;1760002;81;21031;-65
2021/07/20 11:53:21;;;;;;;18.32;9.10;;;;;;;28.21;56.37;98917.44;1757219;81;21048;-65